createdAt,value
2022-08-29T00:02:13.161Z,100165.50
2022-08-29T00:04:40.880Z,100159.38
2022-08-29T00:07:10.339Z,100159.34
2022-08-29T00:09:37.951Z,100155.84
2022-08-29T00:12:06.494Z,100164.47
2022-08-29T00:14:34.438Z,100156.59
2022-08-29T00:17:02.176Z,100160.91
2022-08-29T00:19:30.024Z,100162.63
2022-08-29T00:21:57.675Z,100159.97
2022-08-29T00:24:27.341Z,100167.88
2022-08-29T00:26:54.969Z,100164.47
2022-08-29T00:29:22.589Z,100164.41
2022-08-29T00:31:50.332Z,100173.13
2022-08-29T00:34:17.963Z,100173.16
2022-08-29T00:36:48.951Z,100174.84
2022-08-29T00:39:17.000Z,100174.91
2022-08-29T00:41:47.935Z,100180.13
2022-08-29T00:44:16.719Z,100174.91
2022-08-29T00:46:48.556Z,100176.59
2022-08-29T00:49:30.940Z,100171.41
2022-08-29T00:52:01.177Z,100169.69
2022-08-29T00:54:29.025Z,100170.53
2022-08-29T00:56:58.958Z,100159.28
2022-08-29T00:59:31.554Z,100166.25
2022-08-29T01:01:59.851Z,100162.78
2022-08-29T01:04:27.693Z,100164.56
2022-08-29T01:06:55.653Z,100171.50
2022-08-29T01:09:24.237Z,100171.47
2022-08-29T01:12:15.416Z,100168.09
2022-08-29T01:14:47.848Z,100171.69
2022-08-29T01:17:19.417Z,100168.25
2022-08-29T01:19:53.931Z,100166.53
2022-08-29T01:22:34.834Z,100166.53
2022-08-29T01:25:07.580Z,100171.75
2022-08-29T01:27:39.553Z,100177.84
2022-08-29T01:30:09.027Z,100171.75
2022-08-29T01:32:36.676Z,100181.31
2022-08-29T01:35:05.515Z,100182.19
2022-08-29T01:37:35.282Z,100188.25
2022-08-29T01:40:05.367Z,100183.06
2022-08-29T01:42:36.611Z,100186.53
2022-08-29T01:45:09.963Z,100181.34
2022-08-29T01:47:39.138Z,100191.78
2022-08-29T01:50:10.095Z,100185.66
2022-08-29T01:52:37.781Z,100190.91
2022-08-29T01:55:07.598Z,100192.69
2022-08-29T01:57:37.316Z,100189.22
2022-08-29T02:00:07.723Z,100190.94
2022-08-29T02:02:35.511Z,100191.81
2022-08-29T02:05:04.942Z,100185.72
2022-08-29T02:07:32.567Z,100192.69
2022-08-29T02:10:00.268Z,100196.16
2022-08-29T02:12:31.587Z,100202.25
2022-08-29T02:15:02.006Z,100191.78
2022-08-29T02:17:29.923Z,100190.91
2022-08-29T02:19:58.049Z,100192.69
2022-08-29T02:22:25.990Z,100190.94
2022-08-29T02:24:53.557Z,100186.59
2022-08-29T02:27:21.175Z,100191.81
2022-08-29T02:29:50.593Z,100194.44
2022-08-29T02:32:18.240Z,100197.91
2022-08-29T02:34:47.831Z,100194.41
2022-08-29T02:37:16.310Z,100190.94
2022-08-29T02:39:43.950Z,100190.06
2022-08-29T02:42:11.619Z,100193.53
2022-08-29T02:44:39.267Z,100189.16
2022-08-29T02:47:09.260Z,100199.59
2022-08-29T02:49:37.029Z,100199.59
2022-08-29T02:52:06.515Z,100198.72
2022-08-29T02:54:34.731Z,100197.88
2022-08-29T02:57:02.322Z,100199.63
2022-08-29T02:59:29.972Z,100201.38
2022-08-29T03:01:57.745Z,100207.41
2022-08-29T03:04:26.744Z,100210.06
2022-08-29T03:06:54.525Z,100216.13
2022-08-29T03:09:22.121Z,100207.44
2022-08-29T03:11:52.496Z,100211.81
2022-08-29T03:14:20.097Z,100208.34
2022-08-29T03:16:47.819Z,100207.47
2022-08-29T03:19:15.422Z,100200.53
2022-08-29T03:21:45.402Z,100197.91
2022-08-29T03:24:13.157Z,100198.78
2022-08-29T03:26:40.766Z,100196.22
2022-08-29T03:29:08.357Z,100202.28
2022-08-29T03:31:36.472Z,100199.69
2022-08-29T03:34:04.450Z,100192.72
2022-08-29T03:36:32.340Z,100201.41
2022-08-29T03:39:01.466Z,100203.16
2022-08-29T03:41:30.394Z,100204.00
2022-08-29T03:43:58.872Z,100201.41
2022-08-29T03:46:29.231Z,100197.94
2022-08-29T03:48:59.123Z,100200.53
2022-08-29T03:51:29.389Z,100196.16
2022-08-29T03:53:57.285Z,100203.13
2022-08-29T03:56:26.956Z,100203.13
2022-08-29T03:58:55.110Z,100199.66
2022-08-29T04:01:24.761Z,100203.97
2022-08-29T04:03:52.668Z,100197.94
2022-08-29T04:06:20.856Z,100199.66
2022-08-29T04:08:48.815Z,100201.38
2022-08-29T04:11:18.468Z,100207.44
2022-08-29T04:13:48.801Z,100203.97
2022-08-29T04:16:19.656Z,100211.75
2022-08-29T04:18:47.431Z,100204.84
2022-08-29T04:21:15.552Z,100201.38
2022-08-29T04:23:43.643Z,100194.44
2022-08-29T04:26:35.281Z,100205.69
2022-08-29T04:29:03.691Z,100220.44
2022-08-29T04:31:31.484Z,100213.50
2022-08-29T04:33:59.199Z,100216.06
2022-08-29T04:36:28.039Z,100222.97
2022-08-29T04:38:56.008Z,100216.03
2022-08-29T04:41:23.596Z,100216.09
2022-08-29T04:43:51.224Z,100220.44
2022-08-29T04:46:24.011Z,100220.44
2022-08-29T04:48:52.249Z,100212.66
2022-08-29T04:51:19.936Z,100211.78
2022-08-29T04:53:48.104Z,100215.25
2022-08-29T04:56:16.368Z,100227.38
2022-08-29T04:58:45.280Z,100221.34
2022-08-29T05:01:14.928Z,100230.00
2022-08-29T05:03:45.324Z,100230.91
2022-08-29T05:06:15.518Z,100234.34
2022-08-29T05:08:45.795Z,100236.09
2022-08-29T05:11:15.658Z,100241.28
2022-08-29T05:13:52.029Z,100243.88
2022-08-29T05:16:19.818Z,100243.03
2022-08-29T05:18:48.910Z,100236.94
2022-08-29T05:21:25.927Z,100239.56
2022-08-29T05:23:54.218Z,100246.56
2022-08-29T05:26:22.065Z,100244.81
2022-08-29T05:28:49.714Z,100238.69
2022-08-29T05:31:17.421Z,100248.25
2022-08-29T05:33:45.180Z,100250.84
2022-08-29T05:36:14.189Z,100256.06
2022-08-29T05:38:42.135Z,100259.50
2022-08-29T05:41:09.724Z,100256.06
2022-08-29T05:43:37.374Z,100255.19
2022-08-29T05:46:07.045Z,100263.91
2022-08-29T05:48:35.905Z,100263.91
2022-08-29T05:51:04.132Z,100256.06
2022-08-29T05:53:34.575Z,100255.22
2022-08-29T05:56:02.281Z,100261.28
2022-08-29T05:58:29.917Z,100259.56
2022-08-29T06:00:57.606Z,100258.66
2022-08-29T06:03:25.592Z,100264.72
2022-08-29T06:05:53.957Z,100265.53
2022-08-29T06:08:22.052Z,100262.09
2022-08-29T06:10:51.020Z,100268.19
2022-08-29T06:13:19.444Z,100263.88
2022-08-29T06:15:47.062Z,100269.13
2022-08-29T06:18:14.826Z,100263.03
2022-08-29T06:20:42.519Z,100264.75
2022-08-29T06:23:10.191Z,100265.59
2022-08-29T06:25:40.109Z,100268.19
2022-08-29T06:28:09.481Z,100274.25
2022-08-29T06:30:37.171Z,100276.84
2022-08-29T06:33:04.980Z,100270.75
2022-08-29T06:35:32.583Z,100264.63
2022-08-29T06:38:00.299Z,100268.97
2022-08-29T06:40:28.019Z,100269.00
2022-08-29T06:42:55.693Z,100262.03
2022-08-29T06:45:24.752Z,100263.72
2022-08-29T06:47:52.407Z,100263.75
2022-08-29T06:50:20.169Z,100267.22
2022-08-29T06:52:49.272Z,100273.28
2022-08-29T06:55:17.048Z,100279.34
2022-08-29T06:57:51.575Z,100277.56
2022-08-29T07:00:22.086Z,100281.00
2022-08-29T07:02:53.080Z,100284.47
2022-08-29T07:05:21.627Z,100280.94
2022-08-29T07:07:49.665Z,100286.13
2022-08-29T07:10:22.246Z,100288.72
2022-08-29T07:12:51.028Z,100297.38
2022-08-29T07:15:19.866Z,100296.50
2022-08-29T07:17:47.515Z,100292.97
2022-08-29T07:20:17.808Z,100302.47
2022-08-29T07:22:51.003Z,100298.00
2022-08-29T07:25:20.072Z,100298.00
2022-08-29T07:27:48.329Z,100308.44
2022-08-29T07:30:21.121Z,100301.44
2022-08-29T07:32:48.729Z,100305.00
2022-08-29T07:35:29.598Z,100302.28
2022-08-29T07:37:59.378Z,100301.38
2022-08-29T07:40:27.072Z,100295.31
2022-08-29T07:42:54.751Z,100290.88
2022-08-29T07:45:22.681Z,100291.69
2022-08-29T07:47:50.252Z,100289.69
2022-08-29T07:50:19.226Z,100300.13
2022-08-29T07:52:47.684Z,100292.22
2022-08-29T07:55:15.428Z,100288.63
2022-08-29T07:57:43.076Z,100295.50
2022-08-29T08:00:12.037Z,100298.00
2022-08-29T08:02:42.520Z,100297.78
2022-08-29T08:05:10.484Z,100291.41
2022-08-29T08:07:40.178Z,100292.16
2022-08-29T08:10:09.532Z,100283.41
2022-08-29T08:12:37.178Z,100286.69
2022-08-29T08:15:05.481Z,100282.31
2022-08-29T08:17:33.180Z,100279.63
2022-08-29T08:20:00.796Z,100282.28
2022-08-29T08:22:28.385Z,100282.03
2022-08-29T08:24:57.310Z,100289.03
2022-08-29T08:27:24.954Z,100289.88
2022-08-29T08:29:52.559Z,100285.28
2022-08-29T08:32:23.152Z,100294.56
2022-08-29T08:34:59.964Z,100298.78
2022-08-29T08:37:27.578Z,100296.03
2022-08-29T08:39:58.290Z,100298.34
2022-08-29T08:42:33.648Z,100293.03
2022-08-29T08:45:08.626Z,100296.19
2022-08-29T08:47:40.236Z,100286.31
2022-08-29T08:50:16.066Z,100297.44
2022-08-29T08:52:47.875Z,100294.00
2022-08-29T08:55:24.917Z,100290.38
2022-08-29T08:58:00.665Z,100290.50
2022-08-29T09:00:36.142Z,100299.03
2022-08-29T09:03:13.981Z,100291.72
2022-08-29T09:06:00.808Z,100300.28
2022-08-29T09:08:42.759Z,100297.19
2022-08-29T09:11:19.746Z,100299.56
2022-08-29T09:13:56.899Z,100302.66
2022-08-29T09:16:27.958Z,100304.00
2022-08-29T09:18:59.594Z,100304.38
2022-08-29T09:21:43.893Z,100296.00
2022-08-29T09:24:18.301Z,100294.69
2022-08-29T09:26:47.337Z,100295.25
2022-08-29T09:29:20.807Z,100296.50
2022-08-29T09:32:07.212Z,100292.72
2022-08-29T09:37:29.920Z,100290.28
2022-08-29T09:40:01.366Z,100292.53
2022-08-29T09:42:36.334Z,100293.50
2022-08-29T09:45:16.169Z,100293.63
2022-08-29T09:47:44.145Z,100294.84
2022-08-29T09:50:21.489Z,100293.72
2022-08-29T09:52:53.601Z,100291.78
2022-08-29T09:55:25.475Z,100295.22
2022-08-29T09:57:57.956Z,100281.25
2022-08-29T10:00:29.713Z,100276.84
2022-08-29T10:03:00.103Z,100281.25
2022-08-29T10:05:35.067Z,100274.47
2022-08-29T10:08:04.464Z,100274.06
2022-08-29T10:10:36.000Z,100271.81
2022-08-29T10:13:11.666Z,100268.25
2022-08-29T10:15:51.614Z,100272.50
2022-08-29T10:18:29.122Z,100276.06
2022-08-29T10:21:07.900Z,100274.22
2022-08-29T10:23:47.565Z,100278.19
2022-08-29T10:26:28.599Z,100274.03
2022-08-29T10:29:09.212Z,100268.94
2022-08-29T10:31:41.392Z,100268.31
2022-08-29T10:34:22.258Z,100268.88
2022-08-29T10:36:56.230Z,100264.38
2022-08-29T10:39:34.613Z,100265.09
2022-08-29T10:42:09.618Z,100256.38
2022-08-29T10:44:51.122Z,100254.22
2022-08-29T10:47:32.119Z,100259.59
2022-08-29T10:50:21.834Z,100262.94
2022-08-29T10:53:03.259Z,100263.78
2022-08-29T10:55:42.168Z,100254.69
2022-08-29T10:58:18.149Z,100254.78
2022-08-29T11:00:52.559Z,100242.31
2022-08-29T11:03:29.954Z,100241.97
2022-08-29T11:06:02.297Z,100242.81
2022-08-29T11:08:34.677Z,100245.53
2022-08-29T11:11:02.305Z,100236.53
2022-08-29T11:13:36.084Z,100234.63
2022-08-29T11:16:13.924Z,100230.47
2022-08-29T11:18:46.309Z,100229.50
2022-08-29T11:21:25.195Z,100235.16
2022-08-29T11:23:55.454Z,100228.56
2022-08-29T11:26:39.971Z,100230.84
2022-08-29T11:29:18.065Z,100233.81
2022-08-29T11:31:54.475Z,100222.94
2022-08-29T11:34:32.485Z,100213.16
2022-08-29T11:37:28.869Z,100215.25
2022-08-29T11:40:08.345Z,100208.53
2022-08-29T11:42:55.197Z,100203.47
2022-08-29T11:45:35.592Z,100208.03
2022-08-29T11:48:21.256Z,100207.81
2022-08-29T11:50:50.101Z,100211.13
2022-08-29T11:53:33.670Z,100208.34
2022-08-29T11:56:27.966Z,100207.69
2022-08-29T11:58:57.087Z,100205.34
2022-08-29T12:01:56.205Z,100189.94
2022-08-29T12:04:53.747Z,100198.06
2022-08-29T12:07:24.246Z,100190.28
2022-08-29T12:09:58.812Z,100195.56
2022-08-29T12:12:45.191Z,100188.28
2022-08-29T12:15:54.596Z,100175.38
2022-08-29T12:18:36.605Z,100183.06
2022-08-29T12:21:34.117Z,100180.56
2022-08-29T12:24:02.217Z,100187.06
2022-08-29T12:26:43.087Z,100186.16
2022-08-29T12:29:19.492Z,100181.25
2022-08-29T12:32:28.530Z,100181.84
2022-08-29T12:35:22.211Z,100179.25
2022-08-29T12:38:03.297Z,100176.13
2022-08-29T12:40:46.768Z,100166.88
2022-08-29T12:43:26.905Z,100157.94
2022-08-29T12:45:56.241Z,100156.53
2022-08-29T12:48:26.395Z,100145.78
2022-08-29T12:50:54.699Z,100156.97
2022-08-29T12:53:26.153Z,100147.97
2022-08-29T12:55:56.198Z,100144.69
2022-08-29T12:58:41.436Z,100152.53
2022-08-29T13:01:20.848Z,100140.22
2022-08-29T13:04:00.849Z,100143.59
2022-08-29T13:06:29.395Z,100140.03
2022-08-29T13:08:59.099Z,100141.97
2022-08-29T13:11:29.034Z,100134.78
2022-08-29T13:14:09.413Z,100125.75
2022-08-29T13:16:37.797Z,100141.94
2022-08-29T13:19:11.426Z,100124.75
2022-08-29T13:21:39.743Z,100123.56
2022-08-29T13:24:14.093Z,100112.53
2022-08-29T13:27:01.084Z,100111.84
2022-08-29T13:29:36.873Z,100112.91
2022-08-29T13:32:12.751Z,100116.88
2022-08-29T13:35:00.520Z,100108.09
2022-08-29T13:37:31.304Z,100103.88
2022-08-29T13:40:32.077Z,100113.06
2022-08-29T13:43:01.565Z,100105.28
2022-08-29T13:45:29.283Z,100106.31
2022-08-29T13:48:12.196Z,100093.88
2022-08-29T13:50:40.726Z,100099.25
2022-08-29T13:53:08.459Z,100096.97
2022-08-29T13:55:37.681Z,100084.56
2022-08-29T13:58:05.428Z,100089.69
2022-08-29T14:00:35.430Z,100089.50
2022-08-29T14:03:06.473Z,100086.06
2022-08-29T14:05:35.700Z,100089.16
2022-08-29T14:08:04.635Z,100082.53
2022-08-29T14:10:32.331Z,100072.28
2022-08-29T14:13:01.331Z,100083.72
2022-08-29T14:15:29.024Z,100081.72
2022-08-29T14:17:56.847Z,100083.75
2022-08-29T14:20:24.551Z,100076.03
2022-08-29T14:22:52.140Z,100069.16
2022-08-29T14:25:21.117Z,100074.88
2022-08-29T14:27:49.047Z,100059.94
2022-08-29T14:30:21.483Z,100063.13
2022-08-29T14:32:49.191Z,100054.69
2022-08-29T14:35:26.824Z,100056.81
2022-08-29T14:38:00.390Z,100056.56
2022-08-29T14:40:28.938Z,100044.81
2022-08-29T14:42:57.022Z,100043.31
2022-08-29T14:45:26.103Z,100041.41
2022-08-29T14:47:53.709Z,100034.06
2022-08-29T14:50:22.106Z,100028.69
2022-08-29T14:52:50.240Z,100027.78
2022-08-29T14:55:18.357Z,100031.28
2022-08-29T14:57:46.112Z,100020.13
2022-08-29T15:00:17.157Z,100016.59
2022-08-29T15:02:46.198Z,100016.22
2022-08-29T15:05:14.181Z,100023.13
2022-08-29T15:07:41.912Z,100013.66
2022-08-29T15:10:11.420Z,100015.75
2022-08-29T15:12:39.587Z,100011.81
2022-08-29T15:15:08.473Z,100017.22
2022-08-29T15:17:36.177Z,100018.31
2022-08-29T15:22:54.837Z,100015.78
2022-08-29T15:25:24.117Z,100016.16
2022-08-29T15:27:51.925Z,100009.44
2022-08-29T15:30:21.468Z,99995.03
2022-08-29T15:32:49.403Z,100003.53
2022-08-29T15:35:18.984Z,99999.38
2022-08-29T15:37:46.633Z,99997.25
2022-08-29T15:40:14.987Z,99999.34
2022-08-29T15:42:42.737Z,99992.78
2022-08-29T15:45:11.863Z,99995.47
2022-08-29T15:47:40.605Z,99993.88
2022-08-29T15:50:14.994Z,99999.25
2022-08-29T15:52:43.993Z,99996.06
2022-08-29T15:55:12.595Z,99986.09
2022-08-29T15:57:52.166Z,99989.97
2022-08-29T16:00:29.856Z,99991.16
2022-08-29T16:02:59.962Z,99985.84
2022-08-29T16:05:27.615Z,99981.25
2022-08-29T16:07:56.628Z,99975.78
2022-08-29T16:10:24.355Z,99978.94
2022-08-29T16:12:51.972Z,99982.25
2022-08-29T16:15:19.712Z,99978.09
2022-08-29T16:17:47.400Z,99974.28
2022-08-29T16:20:15.014Z,99968.94
2022-08-29T16:22:43.686Z,99966.41
2022-08-29T16:25:13.956Z,99975.91
2022-08-29T16:27:41.770Z,99964.22
2022-08-29T16:30:10.952Z,99966.34
2022-08-29T16:32:39.644Z,99968.06
2022-08-29T16:35:08.350Z,99965.91
2022-08-29T16:37:36.037Z,99962.53
2022-08-29T16:40:05.371Z,99964.78
2022-08-29T16:42:34.861Z,99967.19
2022-08-29T16:45:02.659Z,99965.84
2022-08-29T16:47:31.073Z,99964.16
2022-08-29T16:49:59.212Z,99970.56
2022-08-29T16:52:26.829Z,99960.59
2022-08-29T16:54:54.498Z,99960.19
2022-08-29T16:57:22.590Z,99959.66
2022-08-29T16:59:51.560Z,99953.53
2022-08-29T17:02:19.199Z,99958.50
2022-08-29T17:04:48.803Z,99954.28
2022-08-29T17:07:16.538Z,99953.59
2022-08-29T17:09:43.108Z,99958.84
2022-08-29T17:12:09.909Z,99953.66
2022-08-29T17:14:36.515Z,99955.19
2022-08-29T17:17:05.694Z,99957.22
2022-08-29T17:19:34.032Z,99962.22
2022-08-29T17:22:01.850Z,99960.34
2022-08-29T17:24:29.447Z,99965.91
2022-08-29T17:26:57.457Z,99960.25
2022-08-29T17:29:25.132Z,99963.06
2022-08-29T17:31:52.721Z,99959.81
2022-08-29T17:34:21.730Z,99964.97
2022-08-29T17:36:49.586Z,99957.13
2022-08-29T17:39:17.219Z,99961.41
2022-08-29T17:41:50.323Z,99964.03
2022-08-29T17:44:18.532Z,99968.59
2022-08-29T17:46:46.217Z,99969.47
2022-08-29T17:49:13.816Z,99972.03
2022-08-29T17:51:43.543Z,99973.75
2022-08-29T17:54:22.377Z,99969.31
2022-08-29T17:56:52.483Z,99969.97
2022-08-29T17:59:21.355Z,99976.13
2022-08-29T18:01:49.095Z,99973.78
2022-08-29T18:04:16.869Z,99974.59
2022-08-29T18:06:47.037Z,99981.31
2022-08-29T18:09:14.936Z,99983.66
2022-08-29T18:11:44.743Z,99989.53
2022-08-29T18:14:12.933Z,99994.31
2022-08-29T18:16:40.728Z,99981.03
2022-08-29T18:19:08.764Z,99984.72
2022-08-29T18:21:36.892Z,99993.22
2022-08-29T18:24:06.490Z,100002.06
2022-08-29T18:26:34.826Z,99995.41
2022-08-29T18:29:02.489Z,99999.34
2022-08-29T18:31:30.174Z,99994.56
2022-08-29T18:34:00.475Z,99998.97
2022-08-29T18:36:29.130Z,100002.22
2022-08-29T18:38:56.830Z,100006.72
2022-08-29T18:41:25.959Z,100009.31
2022-08-29T18:43:53.605Z,100011.81
2022-08-29T18:46:21.790Z,100008.72
2022-08-29T18:48:49.439Z,100019.09
2022-08-29T18:51:17.156Z,100024.84
2022-08-29T18:53:44.796Z,100015.66
2022-08-29T18:56:13.333Z,100023.97
2022-08-29T18:58:44.193Z,100029.44
2022-08-29T19:01:14.009Z,100040.91
2022-08-29T19:03:41.940Z,100040.16
2022-08-29T19:06:10.161Z,100027.22
2022-08-29T19:08:39.365Z,100039.88
2022-08-29T19:11:08.615Z,100039.34
2022-08-29T19:13:36.347Z,100045.91
2022-08-29T19:16:09.482Z,100042.91
2022-08-29T19:18:37.842Z,100045.16
2022-08-29T19:21:06.359Z,100048.38
2022-08-29T19:23:37.007Z,100045.69
2022-08-29T19:26:08.304Z,100054.50
2022-08-29T19:28:36.412Z,100046.75
2022-08-29T19:31:06.340Z,100059.28
2022-08-29T19:33:35.102Z,100055.19
2022-08-29T19:36:05.270Z,100060.84
2022-08-29T19:38:33.012Z,100054.06
2022-08-29T19:41:01.043Z,100056.19
2022-08-29T19:43:31.898Z,100054.63
2022-08-29T19:46:01.211Z,100061.00
2022-08-29T19:48:30.275Z,100065.75
2022-08-29T19:50:57.914Z,100058.91
2022-08-29T19:53:26.213Z,100073.31
2022-08-29T19:55:55.245Z,100076.31
2022-08-29T19:58:31.453Z,100079.28
2022-08-29T20:01:01.425Z,100075.91
2022-08-29T20:03:31.150Z,100076.28
2022-08-29T20:05:59.470Z,100080.06
2022-08-29T20:08:27.406Z,100079.50
2022-08-29T20:10:57.015Z,100080.59
2022-08-29T20:13:24.672Z,100089.63
2022-08-29T20:15:53.523Z,100095.84
2022-08-29T20:18:22.487Z,100111.69
2022-08-29T20:20:51.592Z,100102.31
2022-08-29T20:23:19.296Z,100102.44
2022-08-29T20:25:47.227Z,100102.69
2022-08-29T20:28:15.628Z,100108.16
2022-08-29T20:30:46.206Z,100104.94
2022-08-29T20:33:18.111Z,100106.97
2022-08-29T20:36:03.767Z,100107.16
2022-08-29T20:38:33.244Z,100114.28
2022-08-29T20:41:01.277Z,100114.50
2022-08-29T20:43:29.491Z,100114.53
2022-08-29T20:45:59.905Z,100125.19
2022-08-29T20:48:31.350Z,100122.59
2022-08-29T20:51:00.180Z,100117.44
2022-08-29T20:53:32.350Z,100121.00
2022-08-29T20:56:02.148Z,100127.22
2022-08-29T20:58:30.383Z,100123.78
2022-08-29T21:00:58.192Z,100121.19
2022-08-29T21:03:43.945Z,100137.78
2022-08-29T21:06:11.700Z,100126.53
2022-08-29T21:08:40.921Z,100130.03
2022-08-29T21:11:10.195Z,100126.56
2022-08-29T21:13:43.602Z,100135.38
2022-08-29T21:16:12.394Z,100134.56
2022-08-29T21:18:40.418Z,100127.66
2022-08-29T21:21:11.218Z,100138.25
2022-08-29T21:23:39.037Z,100140.19
2022-08-29T21:26:06.753Z,100146.41
2022-08-29T21:28:37.921Z,100144.00
2022-08-29T21:31:09.562Z,100145.22
2022-08-29T21:33:37.707Z,100148.88
2022-08-29T21:36:08.245Z,100142.91
2022-08-29T21:38:35.889Z,100142.09
2022-08-29T21:41:04.355Z,100144.81
2022-08-29T21:43:32.364Z,100144.81
2022-08-29T21:46:01.436Z,100147.59
2022-08-29T21:48:29.023Z,100138.00
2022-08-29T21:50:57.304Z,100150.19
2022-08-29T21:53:24.899Z,100151.91
2022-08-29T21:55:52.507Z,100144.00
2022-08-29T21:58:20.461Z,100151.78
2022-08-29T22:00:49.246Z,100155.31
2022-08-29T22:03:18.514Z,100153.59
2022-08-29T22:05:46.348Z,100157.06
2022-08-29T22:08:16.452Z,100157.00
2022-08-29T22:10:44.652Z,100157.09
2022-08-29T22:13:12.260Z,100158.84
2022-08-29T22:15:57.983Z,100162.56
2022-08-29T22:18:27.291Z,100159.94
2022-08-29T22:20:55.794Z,100162.59
2022-08-29T22:23:24.336Z,100152.03
2022-08-29T22:25:52.550Z,100162.50
2022-08-29T22:28:20.364Z,100161.56
2022-08-29T22:30:48.619Z,100168.53
2022-08-29T22:33:16.980Z,100165.97
2022-08-29T22:35:46.431Z,100164.28
2022-08-29T22:38:14.216Z,100162.56
2022-08-29T22:40:44.182Z,100162.69
2022-08-29T22:43:12.184Z,100159.22
2022-08-29T22:45:41.445Z,100168.00
2022-08-29T22:48:09.100Z,100165.34
2022-08-29T22:50:37.011Z,100160.09
2022-08-29T22:53:06.195Z,100161.97
2022-08-29T22:55:34.099Z,100160.38
2022-08-29T22:58:01.693Z,100154.34
2022-08-29T23:00:29.594Z,100152.63
2022-08-29T23:02:57.260Z,100150.94
2022-08-29T23:05:25.136Z,100153.59
2022-08-29T23:07:53.031Z,100159.75
2022-08-29T23:10:22.249Z,100151.94
2022-08-29T23:12:50.577Z,100146.75
2022-08-29T23:15:19.383Z,100160.88
2022-08-29T23:17:47.562Z,100155.72
2022-08-29T23:20:16.816Z,100157.44
2022-08-29T23:22:46.952Z,100151.34
2022-08-29T23:25:16.701Z,100147.03
2022-08-29T23:27:45.670Z,100154.00
2022-08-29T23:30:15.237Z,100153.06
2022-08-29T23:32:43.018Z,100153.13
2022-08-29T23:35:11.156Z,100147.91
2022-08-29T23:37:38.780Z,100146.19
2022-08-29T23:40:07.497Z,100148.84
2022-08-29T23:42:35.125Z,100153.25
2022-08-29T23:45:05.313Z,100152.44
2022-08-29T23:47:32.923Z,100153.44
2022-08-29T23:50:00.529Z,100156.16
2022-08-29T23:52:28.158Z,100150.97
2022-08-29T23:54:55.756Z,100149.19
2022-08-29T23:57:23.357Z,100151.81
